sensor_id;sensor_type;location;lat;lon;timestamp;temperature;humidity
15926;DHT22;8062;53.882;10.642;2023-01-08T00:01:12;8.10;99.90
15926;DHT22;8062;53.882;10.642;2023-01-08T00:02:32;8.20;99.90
15926;DHT22;8062;53.882;10.642;2023-01-08T00:03:52;8.20;99.90
15926;DHT22;8062;53.882;10.642;2023-01-08T00:05:12;8.20;99.90
15926;DHT22;8062;53.882;10.642;2023-01-08T00:06:31;8.20;99.90
15926;DHT22;8062;53.882;10.642;2023-01-08T00:07:51;8.30;99.90
15926;DHT22;8062;53.882;10.642;2023-01-08T00:09:11;8.20;99.90
15926;DHT22;8062;53.882;10.642;2023-01-08T00:10:30;8.20;99.90
15926;DHT22;8062;53.882;10.642;2023-01-08T00:11:50;8.20;99.90
15926;DHT22;8062;53.882;10.642;2023-01-08T00:13:09;8.30;99.90
15926;DHT22;8062;53.882;10.642;2023-01-08T00:14:29;8.20;99.90
15926;DHT22;8062;53.882;10.642;2023-01-08T00:15:49;8.20;99.90
15926;DHT22;8062;53.882;10.642;2023-01-08T00:17:08;8.30;99.90
15926;DHT22;8062;53.882;10.642;2023-01-08T00:18:28;8.30;99.90
15926;DHT22;8062;53.882;10.642;2023-01-08T00:19:47;8.30;99.90
15926;DHT22;8062;53.882;10.642;2023-01-08T00:21:07;8.30;99.90
15926;DHT22;8062;53.882;10.642;2023-01-08T00:22:27;8.20;99.90
15926;DHT22;8062;53.882;10.642;2023-01-08T00:23:46;8.20;99.90
15926;DHT22;8062;53.882;10.642;2023-01-08T00:25:06;8.20;99.90
15926;DHT22;8062;53.882;10.642;2023-01-08T00:26:26;8.20;99.90
15926;DHT22;8062;53.882;10.642;2023-01-08T00:27:46;8.30;99.90
15926;DHT22;8062;53.882;10.642;2023-01-08T00:29:05;8.30;99.90
15926;DHT22;8062;53.882;10.642;2023-01-08T00:30:24;8.20;99.90
15926;DHT22;8062;53.882;10.642;2023-01-08T00:31:44;8.20;99.90
15926;DHT22;8062;53.882;10.642;2023-01-08T00:33:04;8.20;99.90
15926;DHT22;8062;53.882;10.642;2023-01-08T00:34:23;8.30;99.90
15926;DHT22;8062;53.882;10.642;2023-01-08T00:35:43;8.30;99.90
15926;DHT22;8062;53.882;10.642;2023-01-08T00:37:03;8.40;99.90
15926;DHT22;8062;53.882;10.642;2023-01-08T00:38:26;8.30;99.90
15926;DHT22;8062;53.882;10.642;2023-01-08T00:39:46;8.40;99.90
15926;DHT22;8062;53.882;10.642;2023-01-08T00:41:06;8.40;99.90
15926;DHT22;8062;53.882;10.642;2023-01-08T00:42:25;8.40;99.90
15926;DHT22;8062;53.882;10.642;2023-01-08T00:43:45;8.40;99.90
15926;DHT22;8062;53.882;10.642;2023-01-08T00:45:05;8.40;99.90
15926;DHT22;8062;53.882;10.642;2023-01-08T00:46:25;8.50;99.90
15926;DHT22;8062;53.882;10.642;2023-01-08T00:47:44;8.50;99.90
15926;DHT22;8062;53.882;10.642;2023-01-08T00:49:03;8.50;99.90
15926;DHT22;8062;53.882;10.642;2023-01-08T00:50:23;8.40;99.90
15926;DHT22;8062;53.882;10.642;2023-01-08T00:51:43;8.50;99.90
15926;DHT22;8062;53.882;10.642;2023-01-08T00:53:03;8.50;99.90
15926;DHT22;8062;53.882;10.642;2023-01-08T00:54:22;8.50;99.90
15926;DHT22;8062;53.882;10.642;2023-01-08T00:55:42;8.40;99.90
15926;DHT22;8062;53.882;10.642;2023-01-08T00:57:02;8.40;99.90
15926;DHT22;8062;53.882;10.642;2023-01-08T00:58:21;8.50;99.90
15926;DHT22;8062;53.882;10.642;2023-01-08T00:59:41;8.40;99.90
15926;DHT22;8062;53.882;10.642;2023-01-08T01:01:00;8.40;99.90
15926;DHT22;8062;53.882;10.642;2023-01-08T01:02:19;8.40;99.90
15926;DHT22;8062;53.882;10.642;2023-01-08T01:03:39;8.40;99.90
15926;DHT22;8062;53.882;10.642;2023-01-08T01:04:59;8.40;99.90
15926;DHT22;8062;53.882;10.642;2023-01-08T01:06:19;8.40;99.90
15926;DHT22;8062;53.882;10.642;2023-01-08T01:07:38;8.40;99.90
15926;DHT22;8062;53.882;10.642;2023-01-08T01:08:58;8.30;99.90
15926;DHT22;8062;53.882;10.642;2023-01-08T01:10:17;8.30;99.90
15926;DHT22;8062;53.882;10.642;2023-01-08T01:11:37;8.40;99.90
15926;DHT22;8062;53.882;10.642;2023-01-08T01:12:57;8.50;99.90
15926;DHT22;8062;53.882;10.642;2023-01-08T01:14:16;8.50;99.90
15926;DHT22;8062;53.882;10.642;2023-01-08T01:15:35;8.40;99.90
15926;DHT22;8062;53.882;10.642;2023-01-08T01:16:55;8.50;99.90
15926;DHT22;8062;53.882;10.642;2023-01-08T01:18:14;8.50;99.90
15926;DHT22;8062;53.882;10.642;2023-01-08T01:19:34;8.40;99.90
15926;DHT22;8062;53.882;10.642;2023-01-08T01:20:54;8.50;99.90
15926;DHT22;8062;53.882;10.642;2023-01-08T01:22:13;8.50;99.90
15926;DHT22;8062;53.882;10.642;2023-01-08T01:23:33;8.50;99.90
15926;DHT22;8062;53.882;10.642;2023-01-08T01:24:52;8.50;99.90
15926;DHT22;8062;53.882;10.642;2023-01-08T01:26:16;8.50;99.90
15926;DHT22;8062;53.882;10.642;2023-01-08T01:27:36;8.50;99.90
15926;DHT22;8062;53.882;10.642;2023-01-08T01:28:56;8.50;99.90
15926;DHT22;8062;53.882;10.642;2023-01-08T01:30:16;8.50;99.90
15926;DHT22;8062;53.882;10.642;2023-01-08T01:31:36;8.50;99.90
15926;DHT22;8062;53.882;10.642;2023-01-08T01:32:55;8.50;99.90
15926;DHT22;8062;53.882;10.642;2023-01-08T01:34:15;8.50;99.90
15926;DHT22;8062;53.882;10.642;2023-01-08T01:35:35;8.50;99.90
15926;DHT22;8062;53.882;10.642;2023-01-08T01:36:54;8.50;99.90
15926;DHT22;8062;53.882;10.642;2023-01-08T01:38:14;8.60;99.90
15926;DHT22;8062;53.882;10.642;2023-01-08T01:39:33;8.60;99.90
15926;DHT22;8062;53.882;10.642;2023-01-08T01:40:53;8.60;99.90
15926;DHT22;8062;53.882;10.642;2023-01-08T01:42:13;8.60;99.90
15926;DHT22;8062;53.882;10.642;2023-01-08T01:43:53;8.50;99.90
15926;DHT22;8062;53.882;10.642;2023-01-08T01:45:18;8.50;99.90
15926;DHT22;8062;53.882;10.642;2023-01-08T01:46:39;8.50;99.90
15926;DHT22;8062;53.882;10.642;2023-01-08T01:48:05;8.50;99.90
15926;DHT22;8062;53.882;10.642;2023-01-08T01:49:28;8.60;99.90
15926;DHT22;8062;53.882;10.642;2023-01-08T01:50:50;8.50;99.90
15926;DHT22;8062;53.882;10.642;2023-01-08T01:52:12;8.50;99.90
15926;DHT22;8062;53.882;10.642;2023-01-08T01:53:33;8.50;99.90
15926;DHT22;8062;53.882;10.642;2023-01-08T01:54:54;8.60;99.90
15926;DHT22;8062;53.882;10.642;2023-01-08T01:56:14;8.50;99.90
15926;DHT22;8062;53.882;10.642;2023-01-08T01:57:34;8.50;99.90
15926;DHT22;8062;53.882;10.642;2023-01-08T01:58:54;8.40;99.90
15926;DHT22;8062;53.882;10.642;2023-01-08T02:00:15;8.40;99.90
15926;DHT22;8062;53.882;10.642;2023-01-08T02:01:35;8.40;99.90
15926;DHT22;8062;53.882;10.642;2023-01-08T02:02:56;8.40;99.90
15926;DHT22;8062;53.882;10.642;2023-01-08T02:04:15;8.30;99.90
15926;DHT22;8062;53.882;10.642;2023-01-08T02:05:50;8.30;99.90
15926;DHT22;8062;53.882;10.642;2023-01-08T02:07:27;8.30;99.90
15926;DHT22;8062;53.882;10.642;2023-01-08T02:09:03;8.30;99.90
15926;DHT22;8062;53.882;10.642;2023-01-08T02:10:38;8.30;99.90
15926;DHT22;8062;53.882;10.642;2023-01-08T02:12:06;8.20;99.90
15926;DHT22;8062;53.882;10.642;2023-01-08T02:13:38;8.20;99.90
15926;DHT22;8062;53.882;10.642;2023-01-08T02:15:16;8.30;99.90
15926;DHT22;8062;53.882;10.642;2023-01-08T02:16:45;8.30;99.90
15926;DHT22;8062;53.882;10.642;2023-01-08T02:18:20;8.30;99.90
15926;DHT22;8062;53.882;10.642;2023-01-08T02:21:10;8.30;99.90
15926;DHT22;8062;53.882;10.642;2023-01-08T02:27:28;8.40;99.90
15926;DHT22;8062;53.882;10.642;2023-01-08T02:30:16;8.40;99.90
15926;DHT22;8062;53.882;10.642;2023-01-08T02:31:39;8.40;99.90
15926;DHT22;8062;53.882;10.642;2023-01-08T02:32:59;8.30;99.90
15926;DHT22;8062;53.882;10.642;2023-01-08T02:34:18;8.40;99.90
15926;DHT22;8062;53.882;10.642;2023-01-08T02:35:47;8.40;99.90
15926;DHT22;8062;53.882;10.642;2023-01-08T02:37:07;8.40;99.90
15926;DHT22;8062;53.882;10.642;2023-01-08T02:38:28;8.40;99.90
15926;DHT22;8062;53.882;10.642;2023-01-08T02:39:58;8.30;99.90
15926;DHT22;8062;53.882;10.642;2023-01-08T02:41:24;8.30;99.90
15926;DHT22;8062;53.882;10.642;2023-01-08T02:42:48;8.30;99.90
15926;DHT22;8062;53.882;10.642;2023-01-08T02:44:12;8.30;99.90
15926;DHT22;8062;53.882;10.642;2023-01-08T02:45:37;8.30;99.90
15926;DHT22;8062;53.882;10.642;2023-01-08T02:47:00;8.40;99.90
15926;DHT22;8062;53.882;10.642;2023-01-08T02:50:04;8.40;99.90
15926;DHT22;8062;53.882;10.642;2023-01-08T02:51:37;8.40;99.90
15926;DHT22;8062;53.882;10.642;2023-01-08T02:53:09;8.40;99.90
15926;DHT22;8062;53.882;10.642;2023-01-08T02:54:31;8.40;99.90
15926;DHT22;8062;53.882;10.642;2023-01-08T02:55:58;8.50;99.90
15926;DHT22;8062;53.882;10.642;2023-01-08T02:57:19;8.50;99.90
15926;DHT22;8062;53.882;10.642;2023-01-08T02:58:40;8.50;99.90
15926;DHT22;8062;53.882;10.642;2023-01-08T03:00:03;8.50;99.90
15926;DHT22;8062;53.882;10.642;2023-01-08T03:01:24;8.50;99.90
15926;DHT22;8062;53.882;10.642;2023-01-08T03:02:47;8.50;99.90
15926;DHT22;8062;53.882;10.642;2023-01-08T03:04:13;8.50;99.90
15926;DHT22;8062;53.882;10.642;2023-01-08T03:05:34;8.50;99.90
15926;DHT22;8062;53.882;10.642;2023-01-08T03:06:53;8.50;99.90
15926;DHT22;8062;53.882;10.642;2023-01-08T03:08:13;8.50;99.90
15926;DHT22;8062;53.882;10.642;2023-01-08T03:09:34;8.40;99.90
15926;DHT22;8062;53.882;10.642;2023-01-08T03:11:06;8.30;99.90
15926;DHT22;8062;53.882;10.642;2023-01-08T03:12:55;8.30;99.90
15926;DHT22;8062;53.882;10.642;2023-01-08T03:14:53;8.20;99.90
15926;DHT22;8062;53.882;10.642;2023-01-08T03:17:57;8.30;99.90
15926;DHT22;8062;53.882;10.642;2023-01-08T03:19:24;8.30;99.90
15926;DHT22;8062;53.882;10.642;2023-01-08T03:20:45;8.30;99.90
15926;DHT22;8062;53.882;10.642;2023-01-08T03:22:12;8.30;99.90
15926;DHT22;8062;53.882;10.642;2023-01-08T03:23:35;8.30;99.90
15926;DHT22;8062;53.882;10.642;2023-01-08T03:24:58;8.40;99.90
15926;DHT22;8062;53.882;10.642;2023-01-08T03:26:21;8.40;99.90
15926;DHT22;8062;53.882;10.642;2023-01-08T03:27:47;8.40;99.90
15926;DHT22;8062;53.882;10.642;2023-01-08T03:29:11;8.40;99.90
15926;DHT22;8062;53.882;10.642;2023-01-08T03:30:32;8.40;99.90
15926;DHT22;8062;53.882;10.642;2023-01-08T03:31:56;8.40;99.90
15926;DHT22;8062;53.882;10.642;2023-01-08T03:33:17;8.40;99.90
15926;DHT22;8062;53.882;10.642;2023-01-08T03:34:38;8.40;99.90
15926;DHT22;8062;53.882;10.642;2023-01-08T03:36:00;8.40;99.90
15926;DHT22;8062;53.882;10.642;2023-01-08T03:37:32;8.30;99.90
15926;DHT22;8062;53.882;10.642;2023-01-08T03:38:58;8.40;99.90
15926;DHT22;8062;53.882;10.642;2023-01-08T03:40:28;8.40;99.90
15926;DHT22;8062;53.882;10.642;2023-01-08T03:41:51;8.30;99.90
15926;DHT22;8062;53.882;10.642;2023-01-08T03:43:11;8.30;99.90
15926;DHT22;8062;53.882;10.642;2023-01-08T03:44:31;8.30;99.90
15926;DHT22;8062;53.882;10.642;2023-01-08T03:45:57;8.30;99.90
15926;DHT22;8062;53.882;10.642;2023-01-08T03:47:19;8.30;99.90
15926;DHT22;8062;53.882;10.642;2023-01-08T03:48:41;8.30;99.90
15926;DHT22;8062;53.882;10.642;2023-01-08T03:50:04;8.30;99.90
15926;DHT22;8062;53.882;10.642;2023-01-08T03:51:25;8.40;99.90
15926;DHT22;8062;53.882;10.642;2023-01-08T03:52:45;8.30;99.90
15926;DHT22;8062;53.882;10.642;2023-01-08T03:54:05;8.40;99.90
15926;DHT22;8062;53.882;10.642;2023-01-08T03:55:27;8.40;99.90
15926;DHT22;8062;53.882;10.642;2023-01-08T03:56:47;8.40;99.90
15926;DHT22;8062;53.882;10.642;2023-01-08T03:58:06;8.40;99.90
15926;DHT22;8062;53.882;10.642;2023-01-08T03:59:25;8.40;99.90
15926;DHT22;8062;53.882;10.642;2023-01-08T04:00:45;8.40;99.90
15926;DHT22;8062;53.882;10.642;2023-01-08T04:02:05;8.30;99.90
15926;DHT22;8062;53.882;10.642;2023-01-08T04:03:24;8.20;99.90
15926;DHT22;8062;53.882;10.642;2023-01-08T04:04:44;8.20;99.90
15926;DHT22;8062;53.882;10.642;2023-01-08T04:06:03;8.20;99.90
15926;DHT22;8062;53.882;10.642;2023-01-08T04:07:23;8.20;99.90
15926;DHT22;8062;53.882;10.642;2023-01-08T04:08:42;8.20;99.90
15926;DHT22;8062;53.882;10.642;2023-01-08T04:10:05;8.10;99.90
15926;DHT22;8062;53.882;10.642;2023-01-08T04:11:25;8.10;99.90
15926;DHT22;8062;53.882;10.642;2023-01-08T04:12:45;8.00;99.90
15926;DHT22;8062;53.882;10.642;2023-01-08T04:14:04;8.00;99.90
15926;DHT22;8062;53.882;10.642;2023-01-08T04:15:24;8.00;99.90
15926;DHT22;8062;53.882;10.642;2023-01-08T04:16:44;8.00;99.90
15926;DHT22;8062;53.882;10.642;2023-01-08T04:18:03;8.00;99.90
15926;DHT22;8062;53.882;10.642;2023-01-08T04:19:23;7.90;99.90
15926;DHT22;8062;53.882;10.642;2023-01-08T04:20:46;8.00;99.90
15926;DHT22;8062;53.882;10.642;2023-01-08T04:22:08;8.00;99.90
15926;DHT22;8062;53.882;10.642;2023-01-08T04:23:28;7.90;99.90
15926;DHT22;8062;53.882;10.642;2023-01-08T04:24:47;7.90;99.90
15926;DHT22;8062;53.882;10.642;2023-01-08T04:26:08;7.80;99.90
15926;DHT22;8062;53.882;10.642;2023-01-08T04:27:27;7.90;99.90
15926;DHT22;8062;53.882;10.642;2023-01-08T04:28:47;7.90;99.90
15926;DHT22;8062;53.882;10.642;2023-01-08T04:30:07;7.90;99.90
15926;DHT22;8062;53.882;10.642;2023-01-08T04:31:26;7.90;99.90
15926;DHT22;8062;53.882;10.642;2023-01-08T04:32:46;7.90;99.90
15926;DHT22;8062;53.882;10.642;2023-01-08T04:34:05;7.90;99.90
15926;DHT22;8062;53.882;10.642;2023-01-08T04:35:25;7.90;99.90
15926;DHT22;8062;53.882;10.642;2023-01-08T04:36:44;7.90;99.90
15926;DHT22;8062;53.882;10.642;2023-01-08T04:38:04;7.90;99.90
15926;DHT22;8062;53.882;10.642;2023-01-08T04:39:24;7.90;99.90
15926;DHT22;8062;53.882;10.642;2023-01-08T04:40:43;7.90;99.90
15926;DHT22;8062;53.882;10.642;2023-01-08T04:42:02;7.80;99.90
15926;DHT22;8062;53.882;10.642;2023-01-08T04:43:22;7.80;99.90
15926;DHT22;8062;53.882;10.642;2023-01-08T04:44:41;7.80;99.90
15926;DHT22;8062;53.882;10.642;2023-01-08T04:46:02;7.90;99.90
15926;DHT22;8062;53.882;10.642;2023-01-08T04:47:25;7.90;99.90
15926;DHT22;8062;53.882;10.642;2023-01-08T04:48:44;8.00;99.90
15926;DHT22;8062;53.882;10.642;2023-01-08T04:50:04;8.00;99.90
15926;DHT22;8062;53.882;10.642;2023-01-08T04:51:24;8.00;99.90
15926;DHT22;8062;53.882;10.642;2023-01-08T04:52:44;8.00;99.90
15926;DHT22;8062;53.882;10.642;2023-01-08T04:54:04;8.10;99.90
15926;DHT22;8062;53.882;10.642;2023-01-08T04:55:23;8.10;99.90
15926;DHT22;8062;53.882;10.642;2023-01-08T04:56:43;8.10;99.90
15926;DHT22;8062;53.882;10.642;2023-01-08T04:58:02;8.20;99.90
15926;DHT22;8062;53.882;10.642;2023-01-08T04:59:22;8.10;99.90
15926;DHT22;8062;53.882;10.642;2023-01-08T05:00:41;8.20;99.90
15926;DHT22;8062;53.882;10.642;2023-01-08T05:02:01;8.20;99.90
15926;DHT22;8062;53.882;10.642;2023-01-08T05:03:20;8.30;99.90
15926;DHT22;8062;53.882;10.642;2023-01-08T05:04:40;8.30;99.90
15926;DHT22;8062;53.882;10.642;2023-01-08T05:05:59;8.20;99.90
15926;DHT22;8062;53.882;10.642;2023-01-08T05:07:19;8.20;99.90
15926;DHT22;8062;53.882;10.642;2023-01-08T05:08:38;8.20;99.90
15926;DHT22;8062;53.882;10.642;2023-01-08T05:09:58;8.20;99.90
15926;DHT22;8062;53.882;10.642;2023-01-08T05:11:17;8.20;99.90
15926;DHT22;8062;53.882;10.642;2023-01-08T05:12:36;8.20;99.90
15926;DHT22;8062;53.882;10.642;2023-01-08T05:13:56;8.20;99.90
15926;DHT22;8062;53.882;10.642;2023-01-08T05:15:16;8.40;99.90
15926;DHT22;8062;53.882;10.642;2023-01-08T05:16:35;8.40;99.90
15926;DHT22;8062;53.882;10.642;2023-01-08T05:18:03;8.40;99.90
15926;DHT22;8062;53.882;10.642;2023-01-08T05:19:23;8.30;99.90
15926;DHT22;8062;53.882;10.642;2023-01-08T05:20:42;8.30;99.90
15926;DHT22;8062;53.882;10.642;2023-01-08T05:22:02;8.40;99.90
15926;DHT22;8062;53.882;10.642;2023-01-08T05:23:21;8.40;99.90
15926;DHT22;8062;53.882;10.642;2023-01-08T05:24:41;8.30;99.90
15926;DHT22;8062;53.882;10.642;2023-01-08T05:26:03;8.30;99.90
15926;DHT22;8062;53.882;10.642;2023-01-08T05:27:23;8.30;99.90
15926;DHT22;8062;53.882;10.642;2023-01-08T05:28:42;8.30;99.90
15926;DHT22;8062;53.882;10.642;2023-01-08T05:30:02;8.30;99.90
15926;DHT22;8062;53.882;10.642;2023-01-08T05:31:22;8.40;99.90
15926;DHT22;8062;53.882;10.642;2023-01-08T05:32:41;8.30;99.90
15926;DHT22;8062;53.882;10.642;2023-01-08T05:34:00;8.30;99.90
15926;DHT22;8062;53.882;10.642;2023-01-08T05:35:20;8.30;99.90
15926;DHT22;8062;53.882;10.642;2023-01-08T05:36:39;8.30;99.90
15926;DHT22;8062;53.882;10.642;2023-01-08T05:37:59;8.30;99.90
15926;DHT22;8062;53.882;10.642;2023-01-08T05:39:19;8.30;99.90
15926;DHT22;8062;53.882;10.642;2023-01-08T05:40:38;8.30;99.90
15926;DHT22;8062;53.882;10.642;2023-01-08T05:41:58;8.40;99.90
15926;DHT22;8062;53.882;10.642;2023-01-08T05:43:17;8.40;99.90
15926;DHT22;8062;53.882;10.642;2023-01-08T05:44:37;8.40;99.90
15926;DHT22;8062;53.882;10.642;2023-01-08T05:45:57;8.50;99.90
15926;DHT22;8062;53.882;10.642;2023-01-08T05:47:18;8.40;99.90
15926;DHT22;8062;53.882;10.642;2023-01-08T05:48:37;8.40;99.90
15926;DHT22;8062;53.882;10.642;2023-01-08T05:49:57;8.40;99.90
15926;DHT22;8062;53.882;10.642;2023-01-08T05:51:17;8.40;99.90
15926;DHT22;8062;53.882;10.642;2023-01-08T05:52:37;8.40;99.90
15926;DHT22;8062;53.882;10.642;2023-01-08T05:53:56;8.40;99.90
15926;DHT22;8062;53.882;10.642;2023-01-08T05:55:16;8.40;99.90
15926;DHT22;8062;53.882;10.642;2023-01-08T05:56:35;8.30;99.90
15926;DHT22;8062;53.882;10.642;2023-01-08T05:57:54;8.30;99.90
15926;DHT22;8062;53.882;10.642;2023-01-08T05:59:14;8.40;99.90
15926;DHT22;8062;53.882;10.642;2023-01-08T06:00:34;8.40;99.90
15926;DHT22;8062;53.882;10.642;2023-01-08T06:01:54;8.40;99.90
15926;DHT22;8062;53.882;10.642;2023-01-08T06:03:13;8.40;99.90
15926;DHT22;8062;53.882;10.642;2023-01-08T06:04:33;8.40;99.90
15926;DHT22;8062;53.882;10.642;2023-01-08T06:05:56;8.40;99.90
15926;DHT22;8062;53.882;10.642;2023-01-08T06:07:15;8.30;99.90
15926;DHT22;8062;53.882;10.642;2023-01-08T06:08:35;8.30;99.90
15926;DHT22;8062;53.882;10.642;2023-01-08T06:09:55;8.30;99.90
15926;DHT22;8062;53.882;10.642;2023-01-08T06:11:14;8.40;99.90
15926;DHT22;8062;53.882;10.642;2023-01-08T06:12:34;8.40;99.90
15926;DHT22;8062;53.882;10.642;2023-01-08T06:13:54;8.50;99.90
15926;DHT22;8062;53.882;10.642;2023-01-08T06:15:13;8.50;99.90
15926;DHT22;8062;53.882;10.642;2023-01-08T06:16:33;8.50;99.90
15926;DHT22;8062;53.882;10.642;2023-01-08T06:17:52;8.50;99.90
15926;DHT22;8062;53.882;10.642;2023-01-08T06:19:12;8.50;99.90
15926;DHT22;8062;53.882;10.642;2023-01-08T06:20:32;8.50;99.90
15926;DHT22;8062;53.882;10.642;2023-01-08T06:21:51;8.50;99.90
15926;DHT22;8062;53.882;10.642;2023-01-08T06:23:10;8.50;99.90
15926;DHT22;8062;53.882;10.642;2023-01-08T06:24:31;8.50;99.90
15926;DHT22;8062;53.882;10.642;2023-01-08T06:25:55;8.40;99.90
15926;DHT22;8062;53.882;10.642;2023-01-08T06:27:15;8.50;99.90
15926;DHT22;8062;53.882;10.642;2023-01-08T06:28:35;8.50;99.90
15926;DHT22;8062;53.882;10.642;2023-01-08T06:29:54;8.40;99.90
15926;DHT22;8062;53.882;10.642;2023-01-08T06:31:13;8.40;99.90
15926;DHT22;8062;53.882;10.642;2023-01-08T06:32:33;8.40;99.90
15926;DHT22;8062;53.882;10.642;2023-01-08T06:33:52;8.40;99.90
15926;DHT22;8062;53.882;10.642;2023-01-08T06:35:12;8.30;99.90
15926;DHT22;8062;53.882;10.642;2023-01-08T06:36:31;8.30;99.90
15926;DHT22;8062;53.882;10.642;2023-01-08T06:37:50;8.30;99.90
15926;DHT22;8062;53.882;10.642;2023-01-08T06:39:10;8.40;99.90
15926;DHT22;8062;53.882;10.642;2023-01-08T06:40:29;8.40;99.90
15926;DHT22;8062;53.882;10.642;2023-01-08T06:41:49;8.50;99.90
15926;DHT22;8062;53.882;10.642;2023-01-08T06:43:08;8.40;99.90
15926;DHT22;8062;53.882;10.642;2023-01-08T06:44:27;8.40;99.90
15926;DHT22;8062;53.882;10.642;2023-01-08T06:45:54;8.30;99.90
15926;DHT22;8062;53.882;10.642;2023-01-08T06:47:16;8.30;99.90
15926;DHT22;8062;53.882;10.642;2023-01-08T06:48:36;8.30;99.90
15926;DHT22;8062;53.882;10.642;2023-01-08T06:49:55;8.30;99.90
15926;DHT22;8062;53.882;10.642;2023-01-08T06:51:16;8.30;99.90
15926;DHT22;8062;53.882;10.642;2023-01-08T06:52:35;8.40;99.90
15926;DHT22;8062;53.882;10.642;2023-01-08T06:53:55;8.30;99.90
15926;DHT22;8062;53.882;10.642;2023-01-08T06:55:15;8.30;99.90
15926;DHT22;8062;53.882;10.642;2023-01-08T06:56:34;8.30;99.90
15926;DHT22;8062;53.882;10.642;2023-01-08T06:57:55;8.30;99.90
15926;DHT22;8062;53.882;10.642;2023-01-08T06:59:15;8.30;99.90
15926;DHT22;8062;53.882;10.642;2023-01-08T07:00:34;8.30;99.90
15926;DHT22;8062;53.882;10.642;2023-01-08T07:01:54;8.30;99.90
15926;DHT22;8062;53.882;10.642;2023-01-08T07:03:13;8.30;99.90
15926;DHT22;8062;53.882;10.642;2023-01-08T07:04:33;8.30;99.90
15926;DHT22;8062;53.882;10.642;2023-01-08T07:05:52;8.30;99.90
15926;DHT22;8062;53.882;10.642;2023-01-08T07:07:13;8.30;99.90
15926;DHT22;8062;53.882;10.642;2023-01-08T07:08:33;8.30;99.90
15926;DHT22;8062;53.882;10.642;2023-01-08T07:09:52;8.30;99.90
15926;DHT22;8062;53.882;10.642;2023-01-08T07:11:12;8.30;99.90
15926;DHT22;8062;53.882;10.642;2023-01-08T07:12:32;8.30;99.90
15926;DHT22;8062;53.882;10.642;2023-01-08T07:13:54;8.30;99.90
15926;DHT22;8062;53.882;10.642;2023-01-08T07:15:14;8.40;99.90
15926;DHT22;8062;53.882;10.642;2023-01-08T07:16:34;8.30;99.90
15926;DHT22;8062;53.882;10.642;2023-01-08T07:17:54;8.30;99.90
15926;DHT22;8062;53.882;10.642;2023-01-08T07:19:13;8.30;99.90
15926;DHT22;8062;53.882;10.642;2023-01-08T07:20:34;8.30;99.90
15926;DHT22;8062;53.882;10.642;2023-01-08T07:21:53;8.30;99.90
15926;DHT22;8062;53.882;10.642;2023-01-08T07:23:13;8.30;99.90
15926;DHT22;8062;53.882;10.642;2023-01-08T07:24:32;8.30;99.90
15926;DHT22;8062;53.882;10.642;2023-01-08T07:25:52;8.30;99.90
15926;DHT22;8062;53.882;10.642;2023-01-08T07:27:11;8.30;99.90
15926;DHT22;8062;53.882;10.642;2023-01-08T07:28:31;8.30;99.90
15926;DHT22;8062;53.882;10.642;2023-01-08T07:29:51;8.30;99.90
15926;DHT22;8062;53.882;10.642;2023-01-08T07:31:10;8.40;99.90
15926;DHT22;8062;53.882;10.642;2023-01-08T07:32:30;8.40;99.90
15926;DHT22;8062;53.882;10.642;2023-01-08T07:33:49;8.40;99.90
15926;DHT22;8062;53.882;10.642;2023-01-08T07:35:09;8.30;99.90
15926;DHT22;8062;53.882;10.642;2023-01-08T07:36:29;8.40;99.90
15926;DHT22;8062;53.882;10.642;2023-01-08T07:37:48;8.40;99.90
15926;DHT22;8062;53.882;10.642;2023-01-08T07:39:08;8.40;99.90
15926;DHT22;8062;53.882;10.642;2023-01-08T07:40:27;8.40;99.90
15926;DHT22;8062;53.882;10.642;2023-01-08T07:41:47;8.40;99.90
15926;DHT22;8062;53.882;10.642;2023-01-08T07:43:08;8.30;99.90
15926;DHT22;8062;53.882;10.642;2023-01-08T07:44:28;8.30;99.90
15926;DHT22;8062;53.882;10.642;2023-01-08T07:45:47;8.30;99.90
15926;DHT22;8062;53.882;10.642;2023-01-08T07:47:07;8.20;99.90
15926;DHT22;8062;53.882;10.642;2023-01-08T07:48:27;8.20;99.90
15926;DHT22;8062;53.882;10.642;2023-01-08T07:49:46;8.20;99.90
15926;DHT22;8062;53.882;10.642;2023-01-08T07:51:06;8.30;99.90
15926;DHT22;8062;53.882;10.642;2023-01-08T07:52:26;8.30;99.90
15926;DHT22;8062;53.882;10.642;2023-01-08T07:53:46;8.30;99.90
15926;DHT22;8062;53.882;10.642;2023-01-08T07:55:05;8.30;99.90
15926;DHT22;8062;53.882;10.642;2023-01-08T07:56:25;8.20;99.90
15926;DHT22;8062;53.882;10.642;2023-01-08T07:57:44;8.30;99.90
15926;DHT22;8062;53.882;10.642;2023-01-08T07:59:03;8.30;99.90
15926;DHT22;8062;53.882;10.642;2023-01-08T08:00:23;8.30;99.90
15926;DHT22;8062;53.882;10.642;2023-01-08T08:01:42;8.40;99.90
15926;DHT22;8062;53.882;10.642;2023-01-08T08:03:07;8.40;99.90
15926;DHT22;8062;53.882;10.642;2023-01-08T08:04:27;8.40;99.90
15926;DHT22;8062;53.882;10.642;2023-01-08T08:05:47;8.50;99.90
15926;DHT22;8062;53.882;10.642;2023-01-08T08:07:06;8.40;99.90
15926;DHT22;8062;53.882;10.642;2023-01-08T08:08:26;8.40;99.90
15926;DHT22;8062;53.882;10.642;2023-01-08T08:09:45;8.40;99.90
15926;DHT22;8062;53.882;10.642;2023-01-08T08:11:05;8.40;99.90
15926;DHT22;8062;53.882;10.642;2023-01-08T08:12:24;8.40;99.90
15926;DHT22;8062;53.882;10.642;2023-01-08T08:13:44;8.40;99.90
15926;DHT22;8062;53.882;10.642;2023-01-08T08:15:06;8.40;99.90
15926;DHT22;8062;53.882;10.642;2023-01-08T08:16:26;8.40;99.90
15926;DHT22;8062;53.882;10.642;2023-01-08T08:17:46;8.50;99.90
15926;DHT22;8062;53.882;10.642;2023-01-08T08:19:06;8.50;99.90
15926;DHT22;8062;53.882;10.642;2023-01-08T08:20:26;8.50;99.90
15926;DHT22;8062;53.882;10.642;2023-01-08T08:21:45;8.50;99.90
15926;DHT22;8062;53.882;10.642;2023-01-08T08:23:10;8.50;99.90
15926;DHT22;8062;53.882;10.642;2023-01-08T08:24:33;8.40;99.90
15926;DHT22;8062;53.882;10.642;2023-01-08T08:25:52;8.50;99.90
15926;DHT22;8062;53.882;10.642;2023-01-08T08:27:12;8.40;99.90
15926;DHT22;8062;53.882;10.642;2023-01-08T08:28:31;8.50;99.90
15926;DHT22;8062;53.882;10.642;2023-01-08T08:29:51;8.50;99.90
15926;DHT22;8062;53.882;10.642;2023-01-08T08:31:10;8.60;99.90
15926;DHT22;8062;53.882;10.642;2023-01-08T08:32:29;8.50;99.90
15926;DHT22;8062;53.882;10.642;2023-01-08T08:33:49;8.60;99.90
15926;DHT22;8062;53.882;10.642;2023-01-08T08:35:09;8.60;99.90
15926;DHT22;8062;53.882;10.642;2023-01-08T08:36:29;8.50;99.90
15926;DHT22;8062;53.882;10.642;2023-01-08T08:37:48;8.50;99.90
15926;DHT22;8062;53.882;10.642;2023-01-08T08:39:08;8.60;99.90
15926;DHT22;8062;53.882;10.642;2023-01-08T08:40:27;8.50;99.90
15926;DHT22;8062;53.882;10.642;2023-01-08T08:41:47;8.60;99.90
15926;DHT22;8062;53.882;10.642;2023-01-08T08:43:07;8.50;99.90
15926;DHT22;8062;53.882;10.642;2023-01-08T08:44:28;8.60;99.90
15926;DHT22;8062;53.882;10.642;2023-01-08T08:45:47;8.50;99.90
15926;DHT22;8062;53.882;10.642;2023-01-08T08:47:07;8.50;99.90
15926;DHT22;8062;53.882;10.642;2023-01-08T08:48:27;8.40;99.90
15926;DHT22;8062;53.882;10.642;2023-01-08T08:49:47;8.40;99.90
15926;DHT22;8062;53.882;10.642;2023-01-08T08:51:06;8.30;99.90